sensor_id;sensor_type;location;lat;lon;timestamp;P1;durP1;ratioP1;P2;durP2;ratioP2
75246;SDS011;63844;50.042;19.224;2024-02-16T00:00:59;77.00;;;38.90;;
75246;SDS011;63844;50.042;19.224;2024-02-16T00:02:44;76.30;;;37.00;;
75246;SDS011;63844;50.042;19.224;2024-02-16T00:04:22;80.10;;;38.70;;
75246;SDS011;63844;50.042;19.224;2024-02-16T00:05:58;80.40;;;40.70;;
75246;SDS011;63844;50.042;19.224;2024-02-16T00:07:35;79.40;;;40.90;;
75246;SDS011;63844;50.042;19.224;2024-02-16T00:09:11;78.00;;;38.90;;
75246;SDS011;63844;50.042;19.224;2024-02-16T00:10:48;82.40;;;40.70;;
75246;SDS011;63844;50.042;19.224;2024-02-16T00:12:25;77.70;;;39.90;;
75246;SDS011;63844;50.042;19.224;2024-02-16T00:14:01;71.90;;;37.10;;
75246;SDS011;63844;50.042;19.224;2024-02-16T00:15:38;74.80;;;36.80;;
75246;SDS011;63844;50.042;19.224;2024-02-16T00:17:15;69.80;;;33.50;;
75246;SDS011;63844;50.042;19.224;2024-02-16T00:18:51;74.20;;;37.00;;
75246;SDS011;63844;50.042;19.224;2024-02-16T00:20:28;80.70;;;38.90;;
75246;SDS011;63844;50.042;19.224;2024-02-16T00:22:06;75.90;;;37.40;;
75246;SDS011;63844;50.042;19.224;2024-02-16T00:23:43;72.10;;;36.80;;
75246;SDS011;63844;50.042;19.224;2024-02-16T00:25:20;71.60;;;34.10;;
75246;SDS011;63844;50.042;19.224;2024-02-16T00:26:57;65.30;;;33.30;;
75246;SDS011;63844;50.042;19.224;2024-02-16T00:28:33;60.30;;;32.30;;
75246;SDS011;63844;50.042;19.224;2024-02-16T00:30:10;69.40;;;33.50;;
75246;SDS011;63844;50.042;19.224;2024-02-16T00:31:47;68.20;;;33.60;;
75246;SDS011;63844;50.042;19.224;2024-02-16T00:33:23;74.30;;;36.10;;
75246;SDS011;63844;50.042;19.224;2024-02-16T00:35:00;71.10;;;34.90;;
75246;SDS011;63844;50.042;19.224;2024-02-16T00:36:36;69.60;;;34.40;;
75246;SDS011;63844;50.042;19.224;2024-02-16T00:38:13;64.90;;;34.60;;
75246;SDS011;63844;50.042;19.224;2024-02-16T00:39:49;71.90;;;34.60;;
75246;SDS011;63844;50.042;19.224;2024-02-16T00:41:26;71.50;;;33.30;;
75246;SDS011;63844;50.042;19.224;2024-02-16T00:43:02;63.80;;;34.10;;
75246;SDS011;63844;50.042;19.224;2024-02-16T00:44:39;61.90;;;32.40;;
75246;SDS011;63844;50.042;19.224;2024-02-16T00:46:16;75.40;;;37.70;;
75246;SDS011;63844;50.042;19.224;2024-02-16T00:47:52;74.80;;;38.30;;
75246;SDS011;63844;50.042;19.224;2024-02-16T00:49:29;69.90;;;34.90;;
75246;SDS011;63844;50.042;19.224;2024-02-16T00:51:05;73.20;;;35.80;;
75246;SDS011;63844;50.042;19.224;2024-02-16T00:52:42;70.90;;;36.80;;
75246;SDS011;63844;50.042;19.224;2024-02-16T00:54:21;71.10;;;35.50;;
75246;SDS011;63844;50.042;19.224;2024-02-16T00:55:57;68.70;;;34.00;;
75246;SDS011;63844;50.042;19.224;2024-02-16T00:57:34;66.20;;;34.90;;
75246;SDS011;63844;50.042;19.224;2024-02-16T00:59:10;71.00;;;35.80;;
75246;SDS011;63844;50.042;19.224;2024-02-16T01:00:47;69.30;;;35.50;;
75246;SDS011;63844;50.042;19.224;2024-02-16T01:02:23;71.10;;;34.50;;
75246;SDS011;63844;50.042;19.224;2024-02-16T01:04:01;72.10;;;35.50;;
75246;SDS011;63844;50.042;19.224;2024-02-16T01:05:39;72.30;;;37.40;;
75246;SDS011;63844;50.042;19.224;2024-02-16T01:07:18;76.30;;;37.20;;
75246;SDS011;63844;50.042;19.224;2024-02-16T01:08:55;73.90;;;36.30;;
75246;SDS011;63844;50.042;19.224;2024-02-16T01:10:32;72.30;;;36.20;;
75246;SDS011;63844;50.042;19.224;2024-02-16T01:12:09;75.50;;;38.10;;
75246;SDS011;63844;50.042;19.224;2024-02-16T01:13:46;72.00;;;36.40;;
75246;SDS011;63844;50.042;19.224;2024-02-16T01:15:22;69.90;;;35.00;;
75246;SDS011;63844;50.042;19.224;2024-02-16T01:16:59;67.00;;;32.70;;
75246;SDS011;63844;50.042;19.224;2024-02-16T01:18:36;69.70;;;35.30;;
75246;SDS011;63844;50.042;19.224;2024-02-16T01:20:13;69.50;;;34.70;;
75246;SDS011;63844;50.042;19.224;2024-02-16T01:21:50;64.70;;;32.50;;
75246;SDS011;63844;50.042;19.224;2024-02-16T01:23:29;62.20;;;32.10;;
75246;SDS011;63844;50.042;19.224;2024-02-16T01:25:07;67.00;;;32.10;;
75246;SDS011;63844;50.042;19.224;2024-02-16T01:26:44;61.80;;;29.80;;
75246;SDS011;63844;50.042;19.224;2024-02-16T01:28:21;61.50;;;31.10;;
75246;SDS011;63844;50.042;19.224;2024-02-16T01:29:59;58.70;;;30.40;;
75246;SDS011;63844;50.042;19.224;2024-02-16T01:31:37;57.00;;;29.30;;
75246;SDS011;63844;50.042;19.224;2024-02-16T01:33:13;58.30;;;28.80;;
75246;SDS011;63844;50.042;19.224;2024-02-16T01:34:50;59.20;;;29.00;;
75246;SDS011;63844;50.042;19.224;2024-02-16T01:36:27;62.90;;;28.90;;
75246;SDS011;63844;50.042;19.224;2024-02-16T01:38:03;59.20;;;28.70;;
75246;SDS011;63844;50.042;19.224;2024-02-16T01:39:40;60.20;;;29.10;;
75246;SDS011;63844;50.042;19.224;2024-02-16T01:41:16;57.40;;;28.70;;
75246;SDS011;63844;50.042;19.224;2024-02-16T01:42:53;61.30;;;28.10;;
75246;SDS011;63844;50.042;19.224;2024-02-16T01:44:30;54.50;;;28.70;;
75246;SDS011;63844;50.042;19.224;2024-02-16T01:46:25;54.80;;;26.00;;
75246;SDS011;63844;50.042;19.224;2024-02-16T01:48:02;60.20;;;27.70;;
75246;SDS011;63844;50.042;19.224;2024-02-16T01:49:39;56.00;;;27.20;;
75246;SDS011;63844;50.042;19.224;2024-02-16T01:51:16;55.50;;;27.00;;
75246;SDS011;63844;50.042;19.224;2024-02-16T01:52:53;53.20;;;26.90;;
75246;SDS011;63844;50.042;19.224;2024-02-16T01:54:29;47.20;;;24.00;;
75246;SDS011;63844;50.042;19.224;2024-02-16T01:56:06;53.20;;;25.20;;
75246;SDS011;63844;50.042;19.224;2024-02-16T01:57:44;54.30;;;26.90;;
75246;SDS011;63844;50.042;19.224;2024-02-16T01:59:21;54.90;;;25.40;;
75246;SDS011;63844;50.042;19.224;2024-02-16T02:00:58;59.50;;;27.80;;
75246;SDS011;63844;50.042;19.224;2024-02-16T02:02:35;54.60;;;26.50;;
75246;SDS011;63844;50.042;19.224;2024-02-16T02:04:12;58.00;;;28.10;;
75246;SDS011;63844;50.042;19.224;2024-02-16T02:05:48;58.10;;;28.60;;
75246;SDS011;63844;50.042;19.224;2024-02-16T02:07:26;62.40;;;27.90;;
75246;SDS011;63844;50.042;19.224;2024-02-16T02:09:03;62.50;;;29.80;;
75246;SDS011;63844;50.042;19.224;2024-02-16T02:10:40;61.70;;;29.30;;
75246;SDS011;63844;50.042;19.224;2024-02-16T02:12:18;57.90;;;29.10;;
75246;SDS011;63844;50.042;19.224;2024-02-16T02:13:55;58.80;;;28.60;;
75246;SDS011;63844;50.042;19.224;2024-02-16T02:15:31;57.00;;;28.50;;
75246;SDS011;63844;50.042;19.224;2024-02-16T02:17:08;59.20;;;29.10;;
75246;SDS011;63844;50.042;19.224;2024-02-16T02:18:45;60.00;;;29.70;;
75246;SDS011;63844;50.042;19.224;2024-02-16T02:20:22;60.40;;;29.50;;
75246;SDS011;63844;50.042;19.224;2024-02-16T02:21:58;63.60;;;30.70;;
75246;SDS011;63844;50.042;19.224;2024-02-16T02:23:35;60.10;;;29.90;;
75246;SDS011;63844;50.042;19.224;2024-02-16T02:25:11;59.10;;;28.50;;
75246;SDS011;63844;50.042;19.224;2024-02-16T02:26:48;64.50;;;32.20;;
75246;SDS011;63844;50.042;19.224;2024-02-16T02:28:24;66.10;;;30.20;;
75246;SDS011;63844;50.042;19.224;2024-02-16T02:30:01;61.10;;;30.50;;
75246;SDS011;63844;50.042;19.224;2024-02-16T02:31:37;60.50;;;28.90;;
75246;SDS011;63844;50.042;19.224;2024-02-16T02:33:14;63.70;;;32.00;;
75246;SDS011;63844;50.042;19.224;2024-02-16T02:34:50;62.10;;;31.40;;
75246;SDS011;63844;50.042;19.224;2024-02-16T02:36:27;64.80;;;32.80;;
75246;SDS011;63844;50.042;19.224;2024-02-16T02:38:03;63.40;;;30.70;;
75246;SDS011;63844;50.042;19.224;2024-02-16T02:39:40;61.50;;;29.10;;
75246;SDS011;63844;50.042;19.224;2024-02-16T02:41:17;61.10;;;30.90;;
75246;SDS011;63844;50.042;19.224;2024-02-16T02:42:55;65.60;;;31.40;;
75246;SDS011;63844;50.042;19.224;2024-02-16T02:44:32;61.10;;;32.40;;
75246;SDS011;63844;50.042;19.224;2024-02-16T02:46:09;64.40;;;31.00;;
75246;SDS011;63844;50.042;19.224;2024-02-16T02:47:53;62.60;;;29.60;;
75246;SDS011;63844;50.042;19.224;2024-02-16T02:49:32;59.90;;;30.40;;
75246;SDS011;63844;50.042;19.224;2024-02-16T02:51:11;52.20;;;27.30;;
75246;SDS011;63844;50.042;19.224;2024-02-16T02:52:47;62.50;;;30.10;;
75246;SDS011;63844;50.042;19.224;2024-02-16T02:54:24;62.10;;;30.60;;
75246;SDS011;63844;50.042;19.224;2024-02-16T02:56:01;61.60;;;29.30;;
75246;SDS011;63844;50.042;19.224;2024-02-16T02:57:38;63.40;;;31.60;;
75246;SDS011;63844;50.042;19.224;2024-02-16T02:59:14;58.70;;;28.60;;
75246;SDS011;63844;50.042;19.224;2024-02-16T03:00:51;58.40;;;29.50;;
75246;SDS011;63844;50.042;19.224;2024-02-16T03:02:27;60.30;;;29.30;;
75246;SDS011;63844;50.042;19.224;2024-02-16T03:04:04;58.70;;;30.10;;
75246;SDS011;63844;50.042;19.224;2024-02-16T03:05:42;59.90;;;29.40;;
75246;SDS011;63844;50.042;19.224;2024-02-16T03:07:18;61.30;;;29.80;;
75246;SDS011;63844;50.042;19.224;2024-02-16T03:08:55;60.50;;;27.60;;
75246;SDS011;63844;50.042;19.224;2024-02-16T03:10:31;57.50;;;28.10;;
75246;SDS011;63844;50.042;19.224;2024-02-16T03:12:10;51.80;;;26.40;;
75246;SDS011;63844;50.042;19.224;2024-02-16T03:13:47;55.10;;;26.00;;
75246;SDS011;63844;50.042;19.224;2024-02-16T03:15:24;66.50;;;31.10;;
75246;SDS011;63844;50.042;19.224;2024-02-16T03:17:00;62.80;;;29.20;;
75246;SDS011;63844;50.042;19.224;2024-02-16T03:18:37;59.40;;;29.20;;
75246;SDS011;63844;50.042;19.224;2024-02-16T03:20:13;59.50;;;28.90;;
75246;SDS011;63844;50.042;19.224;2024-02-16T03:21:50;57.10;;;26.70;;
75246;SDS011;63844;50.042;19.224;2024-02-16T03:23:27;62.60;;;29.10;;
75246;SDS011;63844;50.042;19.224;2024-02-16T03:25:03;56.80;;;27.40;;
75246;SDS011;63844;50.042;19.224;2024-02-16T03:26:41;61.40;;;28.00;;
75246;SDS011;63844;50.042;19.224;2024-02-16T03:28:17;58.30;;;26.70;;
75246;SDS011;63844;50.042;19.224;2024-02-16T03:29:54;62.70;;;29.10;;
75246;SDS011;63844;50.042;19.224;2024-02-16T03:31:30;56.30;;;27.90;;
75246;SDS011;63844;50.042;19.224;2024-02-16T03:33:07;53.50;;;27.30;;
75246;SDS011;63844;50.042;19.224;2024-02-16T03:34:44;61.90;;;28.00;;
75246;SDS011;63844;50.042;19.224;2024-02-16T03:36:21;58.60;;;28.50;;
75246;SDS011;63844;50.042;19.224;2024-02-16T03:37:57;59.80;;;28.10;;
75246;SDS011;63844;50.042;19.224;2024-02-16T03:39:34;57.20;;;27.40;;
75246;SDS011;63844;50.042;19.224;2024-02-16T03:41:14;62.90;;;28.90;;
75246;SDS011;63844;50.042;19.224;2024-02-16T03:42:52;62.40;;;29.30;;
75246;SDS011;63844;50.042;19.224;2024-02-16T03:44:28;64.90;;;30.10;;
75246;SDS011;63844;50.042;19.224;2024-02-16T03:46:05;67.60;;;30.50;;
75246;SDS011;63844;50.042;19.224;2024-02-16T03:47:41;63.00;;;30.20;;
75246;SDS011;63844;50.042;19.224;2024-02-16T03:49:18;61.60;;;29.70;;
75246;SDS011;63844;50.042;19.224;2024-02-16T03:50:55;69.00;;;31.20;;
75246;SDS011;63844;50.042;19.224;2024-02-16T03:52:31;63.20;;;31.20;;
75246;SDS011;63844;50.042;19.224;2024-02-16T03:54:08;61.60;;;31.50;;
75246;SDS011;63844;50.042;19.224;2024-02-16T03:55:45;61.00;;;29.90;;
75246;SDS011;63844;50.042;19.224;2024-02-16T03:57:21;66.60;;;31.20;;
75246;SDS011;63844;50.042;19.224;2024-02-16T03:58:58;65.00;;;33.00;;
75246;SDS011;63844;50.042;19.224;2024-02-16T04:00:35;66.80;;;32.10;;
75246;SDS011;63844;50.042;19.224;2024-02-16T04:02:12;59.50;;;29.30;;
75246;SDS011;63844;50.042;19.224;2024-02-16T04:03:51;64.20;;;31.20;;
75246;SDS011;63844;50.042;19.224;2024-02-16T04:05:29;62.60;;;31.70;;
75246;SDS011;63844;50.042;19.224;2024-02-16T04:07:08;70.40;;;34.20;;
75246;SDS011;63844;50.042;19.224;2024-02-16T04:08:45;63.90;;;32.60;;
75246;SDS011;63844;50.042;19.224;2024-02-16T04:10:21;59.90;;;30.60;;
75246;SDS011;63844;50.042;19.224;2024-02-16T04:11:58;70.70;;;33.90;;
75246;SDS011;63844;50.042;19.224;2024-02-16T04:13:34;70.60;;;36.30;;
75246;SDS011;63844;50.042;19.224;2024-02-16T04:15:11;72.70;;;34.10;;
75246;SDS011;63844;50.042;19.224;2024-02-16T04:16:48;72.60;;;36.10;;
75246;SDS011;63844;50.042;19.224;2024-02-16T04:18:25;65.30;;;32.40;;
75246;SDS011;63844;50.042;19.224;2024-02-16T04:20:01;69.20;;;37.10;;
75246;SDS011;63844;50.042;19.224;2024-02-16T04:21:38;70.90;;;34.50;;
75246;SDS011;63844;50.042;19.224;2024-02-16T04:23:15;66.00;;;32.90;;
75246;SDS011;63844;50.042;19.224;2024-02-16T04:24:51;66.00;;;34.80;;
75246;SDS011;63844;50.042;19.224;2024-02-16T04:26:27;67.70;;;35.50;;
75246;SDS011;63844;50.042;19.224;2024-02-16T04:28:04;64.10;;;33.10;;
75246;SDS011;63844;50.042;19.224;2024-02-16T04:29:41;66.10;;;32.90;;
75246;SDS011;63844;50.042;19.224;2024-02-16T04:31:17;58.20;;;30.50;;
75246;SDS011;63844;50.042;19.224;2024-02-16T04:32:54;66.70;;;31.90;;
75246;SDS011;63844;50.042;19.224;2024-02-16T04:34:30;65.80;;;33.50;;
75246;SDS011;63844;50.042;19.224;2024-02-16T04:36:07;64.40;;;32.10;;
75246;SDS011;63844;50.042;19.224;2024-02-16T04:37:44;64.10;;;31.30;;
75246;SDS011;63844;50.042;19.224;2024-02-16T04:39:20;64.70;;;32.00;;
75246;SDS011;63844;50.042;19.224;2024-02-16T04:40:57;66.10;;;31.20;;
75246;SDS011;63844;50.042;19.224;2024-02-16T04:42:34;62.60;;;30.60;;
75246;SDS011;63844;50.042;19.224;2024-02-16T04:44:10;57.50;;;27.80;;
75246;SDS011;63844;50.042;19.224;2024-02-16T04:45:47;52.90;;;27.00;;
75246;SDS011;63844;50.042;19.224;2024-02-16T04:47:26;51.90;;;25.70;;
75246;SDS011;63844;50.042;19.224;2024-02-16T04:49:02;47.10;;;24.60;;
75246;SDS011;63844;50.042;19.224;2024-02-16T04:50:39;48.60;;;23.80;;
75246;SDS011;63844;50.042;19.224;2024-02-16T04:52:15;49.90;;;22.70;;
75246;SDS011;63844;50.042;19.224;2024-02-16T04:53:52;46.20;;;24.20;;
75246;SDS011;63844;50.042;19.224;2024-02-16T04:55:28;45.40;;;22.10;;
75246;SDS011;63844;50.042;19.224;2024-02-16T04:57:06;42.30;;;20.50;;
75246;SDS011;63844;50.042;19.224;2024-02-16T04:58:43;42.50;;;20.70;;
75246;SDS011;63844;50.042;19.224;2024-02-16T05:00:19;41.60;;;21.10;;
75246;SDS011;63844;50.042;19.224;2024-02-16T05:01:56;41.90;;;20.10;;
75246;SDS011;63844;50.042;19.224;2024-02-16T05:03:33;37.60;;;19.00;;
75246;SDS011;63844;50.042;19.224;2024-02-16T05:05:09;38.90;;;19.50;;
75246;SDS011;63844;50.042;19.224;2024-02-16T05:06:46;34.40;;;17.50;;
75246;SDS011;63844;50.042;19.224;2024-02-16T05:08:23;38.80;;;19.50;;
75246;SDS011;63844;50.042;19.224;2024-02-16T05:09:59;35.70;;;19.20;;
75246;SDS011;63844;50.042;19.224;2024-02-16T05:11:37;34.50;;;17.40;;
75246;SDS011;63844;50.042;19.224;2024-02-16T05:13:14;40.20;;;19.20;;
75246;SDS011;63844;50.042;19.224;2024-02-16T05:14:50;37.50;;;19.50;;
75246;SDS011;63844;50.042;19.224;2024-02-16T05:16:28;38.30;;;19.30;;
75246;SDS011;63844;50.042;19.224;2024-02-16T05:18:05;40.10;;;19.40;;
75246;SDS011;63844;50.042;19.224;2024-02-16T05:19:41;38.40;;;19.90;;
75246;SDS011;63844;50.042;19.224;2024-02-16T05:21:18;42.20;;;20.60;;
75246;SDS011;63844;50.042;19.224;2024-02-16T05:22:54;46.10;;;21.70;;
75246;SDS011;63844;50.042;19.224;2024-02-16T05:24:32;41.10;;;21.80;;
75246;SDS011;63844;50.042;19.224;2024-02-16T05:26:09;50.20;;;24.20;;
75246;SDS011;63844;50.042;19.224;2024-02-16T05:27:46;49.90;;;24.40;;
75246;SDS011;63844;50.042;19.224;2024-02-16T05:29:26;48.10;;;24.70;;
75246;SDS011;63844;50.042;19.224;2024-02-16T05:31:13;50.30;;;26.30;;
75246;SDS011;63844;50.042;19.224;2024-02-16T05:32:52;49.50;;;23.30;;
75246;SDS011;63844;50.042;19.224;2024-02-16T05:34:29;47.00;;;24.70;;
75246;SDS011;63844;50.042;19.224;2024-02-16T05:36:16;54.30;;;27.90;;
75246;SDS011;63844;50.042;19.224;2024-02-16T05:38:01;45.50;;;23.80;;
75246;SDS011;63844;50.042;19.224;2024-02-16T05:39:43;52.50;;;25.40;;
75246;SDS011;63844;50.042;19.224;2024-02-16T05:41:30;51.50;;;25.50;;
75246;SDS011;63844;50.042;19.224;2024-02-16T05:43:06;48.40;;;24.60;;
75246;SDS011;63844;50.042;19.224;2024-02-16T05:44:43;50.00;;;24.50;;
75246;SDS011;63844;50.042;19.224;2024-02-16T05:46:20;48.00;;;25.30;;
75246;SDS011;63844;50.042;19.224;2024-02-16T05:47:56;49.90;;;26.20;;
75246;SDS011;63844;50.042;19.224;2024-02-16T05:49:32;50.30;;;26.30;;
75246;SDS011;63844;50.042;19.224;2024-02-16T05:51:09;51.60;;;25.70;;
75246;SDS011;63844;50.042;19.224;2024-02-16T05:52:48;50.30;;;26.70;;
75246;SDS011;63844;50.042;19.224;2024-02-16T05:54:26;48.30;;;25.60;;
75246;SDS011;63844;50.042;19.224;2024-02-16T05:56:02;47.00;;;24.20;;
75246;SDS011;63844;50.042;19.224;2024-02-16T05:57:39;47.20;;;24.80;;
75246;SDS011;63844;50.042;19.224;2024-02-16T05:59:16;49.00;;;25.70;;
75246;SDS011;63844;50.042;19.224;2024-02-16T06:00:53;48.10;;;25.00;;
75246;SDS011;63844;50.042;19.224;2024-02-16T06:02:31;49.30;;;25.40;;
75246;SDS011;63844;50.042;19.224;2024-02-16T06:04:08;47.60;;;25.00;;
75246;SDS011;63844;50.042;19.224;2024-02-16T06:05:44;47.90;;;25.00;;
75246;SDS011;63844;50.042;19.224;2024-02-16T06:07:20;49.60;;;24.80;;
75246;SDS011;63844;50.042;19.224;2024-02-16T06:08:57;42.90;;;23.00;;
75246;SDS011;63844;50.042;19.224;2024-02-16T06:10:33;44.60;;;23.60;;
75246;SDS011;63844;50.042;19.224;2024-02-16T06:12:10;43.60;;;22.60;;
75246;SDS011;63844;50.042;19.224;2024-02-16T06:13:49;44.10;;;21.20;;
75246;SDS011;63844;50.042;19.224;2024-02-16T06:15:26;51.40;;;24.60;;
75246;SDS011;63844;50.042;19.224;2024-02-16T06:17:02;56.70;;;26.00;;
75246;SDS011;63844;50.042;19.224;2024-02-16T06:18:39;55.20;;;26.90;;
75246;SDS011;63844;50.042;19.224;2024-02-16T06:20:16;53.00;;;26.70;;
75246;SDS011;63844;50.042;19.224;2024-02-16T06:21:53;57.80;;;28.20;;
75246;SDS011;63844;50.042;19.224;2024-02-16T06:23:30;55.40;;;27.10;;
75246;SDS011;63844;50.042;19.224;2024-02-16T06:25:07;57.20;;;26.60;;
75246;SDS011;63844;50.042;19.224;2024-02-16T06:26:44;56.90;;;27.40;;
75246;SDS011;63844;50.042;19.224;2024-02-16T06:28:21;54.60;;;26.60;;
75246;SDS011;63844;50.042;19.224;2024-02-16T06:29:59;52.10;;;25.50;;
75246;SDS011;63844;50.042;19.224;2024-02-16T06:31:36;54.70;;;25.10;;
75246;SDS011;63844;50.042;19.224;2024-02-16T06:33:13;53.30;;;25.50;;
75246;SDS011;63844;50.042;19.224;2024-02-16T06:34:49;55.30;;;26.20;;
75246;SDS011;63844;50.042;19.224;2024-02-16T06:36:28;52.40;;;25.60;;
75246;SDS011;63844;50.042;19.224;2024-02-16T06:38:05;51.70;;;25.00;;
75246;SDS011;63844;50.042;19.224;2024-02-16T06:39:41;59.70;;;28.20;;
75246;SDS011;63844;50.042;19.224;2024-02-16T06:41:19;56.30;;;28.20;;
75246;SDS011;63844;50.042;19.224;2024-02-16T06:42:55;62.20;;;29.60;;
75246;SDS011;63844;50.042;19.224;2024-02-16T06:44:32;62.90;;;29.90;;
75246;SDS011;63844;50.042;19.224;2024-02-16T06:46:09;61.20;;;31.30;;
75246;SDS011;63844;50.042;19.224;2024-02-16T06:47:46;61.00;;;30.00;;
75246;SDS011;63844;50.042;19.224;2024-02-16T06:49:22;61.00;;;30.70;;
75246;SDS011;63844;50.042;19.224;2024-02-16T06:50:59;54.70;;;28.00;;
75246;SDS011;63844;50.042;19.224;2024-02-16T06:52:35;60.70;;;27.80;;
75246;SDS011;63844;50.042;19.224;2024-02-16T06:54:12;54.80;;;26.20;;
75246;SDS011;63844;50.042;19.224;2024-02-16T06:55:48;55.70;;;26.40;;
75246;SDS011;63844;50.042;19.224;2024-02-16T06:57:26;46.60;;;22.10;;
75246;SDS011;63844;50.042;19.224;2024-02-16T06:59:03;52.90;;;23.30;;
75246;SDS011;63844;50.042;19.224;2024-02-16T07:00:39;48.10;;;24.00;;
75246;SDS011;63844;50.042;19.224;2024-02-16T07:02:18;52.40;;;24.40;;
75246;SDS011;63844;50.042;19.224;2024-02-16T07:03:55;46.40;;;22.90;;
75246;SDS011;63844;50.042;19.224;2024-02-16T07:05:31;50.70;;;24.50;;
75246;SDS011;63844;50.042;19.224;2024-02-16T07:07:08;45.40;;;24.10;;
75246;SDS011;63844;50.042;19.224;2024-02-16T07:08:45;52.00;;;24.40;;
75246;SDS011;63844;50.042;19.224;2024-02-16T07:10:22;52.60;;;25.50;;
75246;SDS011;63844;50.042;19.224;2024-02-16T07:11:58;50.20;;;25.40;;
75246;SDS011;63844;50.042;19.224;2024-02-16T07:13:36;49.80;;;25.30;;
75246;SDS011;63844;50.042;19.224;2024-02-16T07:15:13;48.60;;;23.90;;
75246;SDS011;63844;50.042;19.224;2024-02-16T07:16:50;46.70;;;22.50;;
75246;SDS011;63844;50.042;19.224;2024-02-16T07:18:26;43.40;;;21.60;;
75246;SDS011;63844;50.042;19.224;2024-02-16T07:20:03;48.50;;;23.80;;
75246;SDS011;63844;50.042;19.224;2024-02-16T07:21:40;51.00;;;22.80;;
75246;SDS011;63844;50.042;19.224;2024-02-16T07:23:17;43.30;;;19.30;;
75246;SDS011;63844;50.042;19.224;2024-02-16T07:24:54;41.40;;;19.80;;
75246;SDS011;63844;50.042;19.224;2024-02-16T07:26:30;39.20;;;21.70;;
75246;SDS011;63844;50.042;19.224;2024-02-16T07:28:07;40.80;;;20.50;;
75246;SDS011;63844;50.042;19.224;2024-02-16T07:29:44;42.80;;;19.30;;
75246;SDS011;63844;50.042;19.224;2024-02-16T07:31:20;40.80;;;20.10;;
75246;SDS011;63844;50.042;19.224;2024-02-16T07:32:57;41.60;;;20.10;;
75246;SDS011;63844;50.042;19.224;2024-02-16T07:34:33;56.30;;;20.40;;
75246;SDS011;63844;50.042;19.224;2024-02-16T07:36:10;41.90;;;20.90;;
75246;SDS011;63844;50.042;19.224;2024-02-16T07:37:50;41.20;;;21.50;;
75246;SDS011;63844;50.042;19.224;2024-02-16T07:39:30;38.90;;;18.90;;
75246;SDS011;63844;50.042;19.224;2024-02-16T07:41:06;39.80;;;19.30;;
75246;SDS011;63844;50.042;19.224;2024-02-16T07:42:43;45.50;;;23.20;;
75246;SDS011;63844;50.042;19.224;2024-02-16T07:44:21;41.60;;;22.70;;
75246;SDS011;63844;50.042;19.224;2024-02-16T07:45:58;45.20;;;24.20;;
75246;SDS011;63844;50.042;19.224;2024-02-16T07:47:34;47.30;;;24.80;;
75246;SDS011;63844;50.042;19.224;2024-02-16T07:49:11;47.90;;;25.00;;
75246;SDS011;63844;50.042;19.224;2024-02-16T07:50:47;48.50;;;25.30;;
75246;SDS011;63844;50.042;19.224;2024-02-16T07:52:26;50.90;;;24.90;;
75246;SDS011;63844;50.042;19.224;2024-02-16T07:54:03;43.80;;;23.00;;
75246;SDS011;63844;50.042;19.224;2024-02-16T07:55:39;49.40;;;25.30;;
75246;SDS011;63844;50.042;19.224;2024-02-16T07:57:16;52.60;;;24.60;;
75246;SDS011;63844;50.042;19.224;2024-02-16T07:58:53;52.80;;;25.80;;
75246;SDS011;63844;50.042;19.224;2024-02-16T08:00:29;57.30;;;28.00;;
75246;SDS011;63844;50.042;19.224;2024-02-16T08:02:06;58.50;;;27.70;;
75246;SDS011;63844;50.042;19.224;2024-02-16T08:03:43;49.80;;;25.20;;
75246;SDS011;63844;50.042;19.224;2024-02-16T08:05:19;50.70;;;25.40;;
75246;SDS011;63844;50.042;19.224;2024-02-16T08:06:56;45.60;;;23.50;;
75246;SDS011;63844;50.042;19.224;2024-02-16T08:08:33;50.60;;;24.80;;
75246;SDS011;63844;50.042;19.224;2024-02-16T08:10:09;48.10;;;24.30;;
75246;SDS011;63844;50.042;19.224;2024-02-16T08:11:46;49.00;;;23.30;;
75246;SDS011;63844;50.042;19.224;2024-02-16T08:13:23;48.40;;;24.10;;
75246;SDS011;63844;50.042;19.224;2024-02-16T08:14:59;48.40;;;24.20;;
75246;SDS011;63844;50.042;19.224;2024-02-16T08:16:36;49.10;;;24.40;;
75246;SDS011;63844;50.042;19.224;2024-02-16T08:18:12;46.00;;;23.60;;
75246;SDS011;63844;50.042;19.224;2024-02-16T08:19:52;48.00;;;24.20;;
75246;SDS011;63844;50.042;19.224;2024-02-16T08:21:30;48.70;;;24.40;;
75246;SDS011;63844;50.042;19.224;2024-02-16T08:23:06;47.60;;;23.50;;
75246;SDS011;63844;50.042;19.224;2024-02-16T08:24:43;47.80;;;24.30;;
75246;SDS011;63844;50.042;19.224;2024-02-16T08:26:22;48.80;;;24.10;;
75246;SDS011;63844;50.042;19.224;2024-02-16T08:27:58;47.90;;;24.20;;
75246;SDS011;63844;50.042;19.224;2024-02-16T08:29:35;47.20;;;23.50;;
75246;SDS011;63844;50.042;19.224;2024-02-16T08:31:14;47.60;;;24.00;;
75246;SDS011;63844;50.042;19.224;2024-02-16T08:34:30;41.20;;;19.00;;
75246;SDS011;63844;50.042;19.224;2024-02-16T08:36:07;40.90;;;21.50;;
75246;SDS011;63844;50.042;19.224;2024-02-16T08:37:44;40.60;;;20.40;;
75246;SDS011;63844;50.042;19.224;2024-02-16T08:39:20;43.10;;;22.10;;
75246;SDS011;63844;50.042;19.224;2024-02-16T08:40:57;41.00;;;21.40;;
75246;SDS011;63844;50.042;19.224;2024-02-16T08:42:35;45.90;;;23.80;;
75246;SDS011;63844;50.042;19.224;2024-02-16T08:44:11;42.80;;;22.80;;
75246;SDS011;63844;50.042;19.224;2024-02-16T08:45:48;47.60;;;23.40;;
75246;SDS011;63844;50.042;19.224;2024-02-16T08:47:24;45.50;;;22.90;;
75246;SDS011;63844;50.042;19.224;2024-02-16T08:49:01;46.70;;;23.60;;
75246;SDS011;63844;50.042;19.224;2024-02-16T08:50:38;50.70;;;24.70;;
75246;SDS011;63844;50.042;19.224;2024-02-16T08:52:15;45.30;;;22.60;;
75246;SDS011;63844;50.042;19.224;2024-02-16T08:53:52;49.00;;;24.00;;
75246;SDS011;63844;50.042;19.224;2024-02-16T08:55:28;42.20;;;21.90;;
75246;SDS011;63844;50.042;19.224;2024-02-16T08:57:05;38.70;;;21.20;;
75246;SDS011;63844;50.042;19.224;2024-02-16T08:58:42;39.00;;;20.00;;
75246;SDS011;63844;50.042;19.224;2024-02-16T09:00:19;38.40;;;20.00;;
75246;SDS011;63844;50.042;19.224;2024-02-16T09:01:56;47.40;;;22.80;;
75246;SDS011;63844;50.042;19.224;2024-02-16T09:03:32;37.10;;;18.60;;
75246;SDS011;63844;50.042;19.224;2024-02-16T09:05:13;34.10;;;18.00;;
75246;SDS011;63844;50.042;19.224;2024-02-16T09:06:50;34.70;;;17.00;;
75246;SDS011;63844;50.042;19.224;2024-02-16T09:08:27;35.70;;;18.10;;
75246;SDS011;63844;50.042;19.224;2024-02-16T09:10:06;35.80;;;18.10;;
75246;SDS011;63844;50.042;19.224;2024-02-16T09:11:44;31.90;;;16.50;;
75246;SDS011;63844;50.042;19.224;2024-02-16T09:13:20;30.20;;;17.10;;
75246;SDS011;63844;50.042;19.224;2024-02-16T09:14:57;28.50;;;16.30;;
75246;SDS011;63844;50.042;19.224;2024-02-16T09:16:33;35.40;;;16.10;;
75246;SDS011;63844;50.042;19.224;2024-02-16T09:18:10;29.70;;;16.20;;
75246;SDS011;63844;50.042;19.224;2024-02-16T09:19:46;31.60;;;16.50;;
75246;SDS011;63844;50.042;19.224;2024-02-16T09:21:23;32.20;;;16.60;;